createdAt,value
2018-05-13T00:01:55.602Z,13.20
2018-05-13T00:04:21.907Z,13.20
2018-05-13T00:06:51.224Z,14.30
2018-05-13T00:09:18.650Z,13.00
2018-05-13T00:11:44.931Z,13.70
2018-05-13T00:14:11.188Z,14.30
2018-05-13T00:16:37.459Z,14.50
2018-05-13T00:19:03.691Z,14.07
2018-05-13T00:21:29.963Z,13.70
2018-05-13T00:23:56.204Z,13.83
2018-05-13T00:26:22.472Z,14.40
2018-05-13T00:28:51.092Z,15.17
2018-05-13T00:31:17.384Z,14.23
2018-05-13T00:33:43.636Z,13.27
2018-05-13T00:36:10.643Z,14.77
2018-05-13T00:38:36.860Z,13.43
2018-05-13T00:41:03.138Z,15.13
2018-05-13T00:43:29.391Z,14.77
2018-05-13T00:45:59.795Z,14.70
2018-05-13T00:48:26.048Z,13.63
2018-05-13T00:50:52.292Z,14.80
2018-05-13T00:53:18.660Z,14.10
2018-05-13T00:55:44.886Z,13.63
2018-05-13T00:58:11.119Z,15.37
2018-05-13T01:00:38.127Z,14.10
2018-05-13T01:03:05.124Z,15.23
2018-05-13T01:05:31.383Z,14.83
2018-05-13T01:07:57.623Z,15.20
2018-05-13T01:10:23.944Z,13.60
2018-05-13T01:12:50.216Z,13.90
2018-05-13T01:15:16.515Z,14.33
2018-05-13T01:17:42.779Z,15.60
2018-05-13T01:20:09.043Z,13.10
2018-05-13T01:22:35.307Z,15.50
2018-05-13T01:25:01.567Z,14.73
2018-05-13T01:27:27.830Z,13.90
2018-05-13T01:29:54.792Z,15.37
2018-05-13T01:32:21.020Z,14.47
2018-05-13T01:34:48.003Z,14.67
2018-05-13T01:37:14.265Z,15.33
2018-05-13T01:39:40.524Z,14.10
2018-05-13T01:42:07.524Z,14.33
2018-05-13T01:44:33.759Z,14.27
2018-05-13T01:47:00.012Z,14.57
2018-05-13T01:49:26.279Z,14.93
2018-05-13T01:51:53.268Z,14.00
2018-05-13T01:54:19.521Z,13.90
2018-05-13T01:56:46.507Z,15.10
2018-05-13T01:59:12.784Z,14.27
2018-05-13T02:01:39.432Z,14.27
2018-05-13T02:04:05.696Z,14.23
2018-05-13T02:06:31.928Z,14.80
2018-05-13T02:08:58.303Z,14.50
2018-05-13T02:11:25.524Z,15.60
2018-05-13T02:13:51.732Z,14.70
2018-05-13T02:16:17.967Z,15.40
2018-05-13T02:18:44.192Z,15.70
2018-05-13T02:21:10.487Z,14.83
2018-05-13T02:23:36.713Z,16.20
2018-05-13T02:26:02.955Z,15.83
2018-05-13T02:28:29.203Z,15.83
2018-05-13T02:30:56.259Z,17.40
2018-05-13T02:33:22.491Z,17.00
2018-05-13T02:35:48.839Z,18.53
2018-05-13T02:38:15.089Z,16.30
2018-05-13T02:40:41.359Z,17.53
2018-05-13T02:43:07.605Z,16.93
2018-05-13T02:45:33.846Z,17.60
2018-05-13T02:48:00.084Z,18.53
2018-05-13T02:50:26.327Z,16.80
2018-05-13T02:52:52.572Z,16.57
2018-05-13T02:55:18.819Z,16.60
2018-05-13T02:57:45.046Z,18.50
2018-05-13T03:00:12.076Z,16.77
2018-05-13T03:02:38.453Z,17.37
2018-05-13T03:05:05.068Z,17.57
2018-05-13T03:07:32.396Z,17.67
2018-05-13T03:09:59.372Z,16.53
2018-05-13T03:12:25.637Z,16.37
2018-05-13T03:14:51.901Z,16.50
2018-05-13T03:17:18.209Z,15.00
2018-05-13T03:19:44.454Z,14.30
2018-05-13T03:22:10.732Z,14.53
2018-05-13T03:24:36.983Z,17.47
2018-05-13T03:27:03.991Z,15.30
2018-05-13T03:29:30.276Z,13.60
2018-05-13T03:31:56.519Z,15.03
2018-05-13T03:34:22.751Z,15.43
2018-05-13T03:36:49.779Z,15.10
2018-05-13T03:39:16.034Z,15.50
2018-05-13T03:41:42.292Z,16.10
2018-05-13T03:44:08.544Z,15.17
2018-05-13T03:46:34.804Z,15.20
2018-05-13T03:49:01.053Z,15.87
2018-05-13T03:51:28.020Z,16.30
2018-05-13T03:53:54.255Z,15.93
2018-05-13T03:56:21.248Z,16.70
2018-05-13T03:58:47.577Z,17.13
2018-05-13T04:01:13.807Z,14.87
2018-05-13T04:03:42.526Z,17.50
2018-05-13T04:06:08.804Z,17.83
2018-05-13T04:08:49.003Z,19.27
2018-05-13T04:11:27.748Z,19.13
2018-05-13T04:14:06.915Z,17.67
2018-05-13T04:16:33.183Z,17.93
2018-05-13T04:18:59.449Z,18.33
2018-05-13T04:21:27.499Z,19.57
2018-05-13T04:23:53.761Z,20.50
2018-05-13T04:26:20.761Z,21.40
2018-05-13T04:28:47.012Z,21.70
2018-05-13T04:31:13.254Z,21.53
2018-05-13T04:33:39.935Z,21.50
2018-05-13T04:36:06.204Z,20.90
2018-05-13T04:38:33.225Z,22.87
2018-05-13T04:41:00.264Z,20.60
2018-05-13T04:43:26.495Z,20.80
2018-05-13T04:45:52.713Z,21.70
2018-05-13T04:48:23.211Z,23.73
2018-05-13T04:50:49.547Z,21.87
2018-05-13T04:53:15.788Z,23.40
2018-05-13T04:55:42.020Z,21.20
2018-05-13T04:58:08.324Z,21.07
2018-05-13T05:00:35.300Z,24.20
2018-05-13T05:03:02.283Z,24.10
2018-05-13T05:05:28.563Z,23.53
2018-05-13T05:07:54.788Z,24.57
2018-05-13T05:10:21.024Z,25.33
2018-05-13T05:12:47.338Z,25.30
2018-05-13T05:15:13.620Z,25.20
2018-05-13T05:17:40.623Z,25.63
2018-05-13T05:20:06.863Z,26.67
2018-05-13T05:22:33.099Z,26.50
2018-05-13T05:24:59.348Z,24.70
2018-05-13T05:27:25.591Z,26.20
2018-05-13T05:29:51.832Z,25.10
2018-05-13T05:32:18.121Z,27.57
2018-05-13T05:34:44.332Z,25.60
2018-05-13T05:37:10.580Z,26.27
2018-05-13T05:39:36.833Z,27.23
2018-05-13T05:42:03.815Z,25.53
2018-05-13T05:44:30.082Z,25.53
2018-05-13T05:46:56.418Z,25.80
2018-05-13T05:49:23.387Z,27.77
2018-05-13T05:51:49.708Z,28.67
2018-05-13T05:54:15.928Z,27.73
2018-05-13T05:56:42.155Z,27.93
2018-05-13T05:59:08.388Z,28.20
2018-05-13T06:01:34.647Z,29.10
2018-05-13T06:04:00.883Z,28.57
2018-05-13T06:06:27.115Z,28.60
2018-05-13T06:08:56.107Z,29.00
2018-05-13T06:11:22.384Z,29.10
2018-05-13T06:13:48.621Z,31.73
2018-05-13T06:16:15.632Z,29.40
2018-05-13T06:18:41.913Z,29.27
2018-05-13T06:21:08.157Z,29.90
2018-05-13T06:23:34.401Z,27.70
2018-05-13T06:26:00.642Z,29.03
2018-05-13T06:28:26.913Z,28.87
2018-05-13T06:30:53.184Z,27.70
2018-05-13T06:33:19.424Z,26.23
2018-05-13T06:35:45.676Z,22.20
2018-05-13T06:38:12.994Z,22.70
2018-05-13T06:40:39.277Z,20.87
2018-05-13T06:43:05.522Z,18.50
2018-05-13T06:45:32.497Z,19.70
2018-05-13T06:47:58.788Z,19.07
2018-05-13T06:50:25.068Z,19.50
2018-05-13T06:52:51.320Z,17.43
2018-05-13T06:55:17.608Z,16.80
2018-05-13T06:57:44.595Z,16.50
2018-05-13T07:00:10.839Z,15.23
2018-05-13T07:02:37.088Z,15.90
2018-05-13T07:05:03.497Z,15.77
2018-05-13T07:07:30.568Z,14.60
2018-05-13T07:09:57.540Z,13.57
2018-05-13T07:12:23.783Z,14.50
2018-05-13T07:14:50.023Z,13.50
2018-05-13T07:17:16.307Z,13.00
2018-05-13T07:19:42.538Z,13.83
2018-05-13T07:22:08.787Z,11.80
2018-05-13T07:24:35.052Z,12.20
2018-05-13T07:27:01.993Z,13.37
2018-05-13T07:29:28.265Z,11.90
2018-05-13T07:31:55.281Z,12.70
2018-05-13T07:34:21.516Z,13.23
2018-05-13T07:36:47.770Z,13.50
2018-05-13T07:39:14.033Z,13.10
2018-05-13T07:41:40.310Z,13.60
2018-05-13T07:44:06.589Z,14.60
2018-05-13T07:46:34.211Z,14.00
2018-05-13T07:49:00.436Z,14.47
2018-05-13T07:51:27.271Z,14.63
2018-05-13T07:53:53.515Z,15.60
2018-05-13T07:56:19.775Z,15.10
2018-05-13T07:58:46.034Z,14.93
2018-05-13T08:01:12.271Z,16.20
2018-05-13T08:03:41.641Z,15.70
2018-05-13T08:06:09.259Z,15.67
2018-05-13T08:08:35.485Z,16.63
2018-05-13T08:11:01.735Z,16.40
2018-05-13T08:13:28.113Z,16.37
2018-05-13T08:15:55.108Z,15.70
2018-05-13T08:18:21.354Z,15.30
2018-05-13T08:20:49.527Z,14.93
2018-05-13T08:23:15.772Z,15.17
2018-05-13T08:25:42.015Z,15.43
2018-05-13T08:28:08.255Z,15.00
2018-05-13T08:30:34.494Z,15.30
2018-05-13T08:33:01.480Z,16.47
2018-05-13T08:35:27.741Z,15.10
2018-05-13T08:37:55.689Z,14.73
2018-05-13T08:40:24.987Z,15.10
2018-05-13T08:42:51.262Z,16.90
2018-05-13T08:45:17.652Z,17.10
2018-05-13T08:47:43.898Z,15.70
2018-05-13T08:50:10.892Z,15.97
2018-05-13T08:52:37.156Z,14.60
2018-05-13T08:55:03.424Z,17.47
2018-05-13T08:57:30.986Z,17.13
2018-05-13T08:59:57.225Z,17.80
2018-05-13T09:02:23.448Z,17.80
2018-05-13T09:04:49.885Z,19.00
2018-05-13T09:07:16.849Z,19.70
2018-05-13T09:09:43.123Z,18.30
2018-05-13T09:12:10.148Z,19.40
2018-05-13T09:14:36.387Z,20.40
2018-05-13T09:17:06.411Z,22.63
2018-05-13T09:19:32.661Z,21.83
2018-05-13T09:21:58.893Z,24.00
2018-05-13T09:24:25.128Z,23.60
2018-05-13T09:26:51.419Z,25.10
2018-05-13T09:29:18.445Z,28.83
2018-05-13T09:31:45.528Z,31.33
2018-05-13T09:34:16.606Z,26.77
2018-05-13T09:36:43.708Z,29.40
2018-05-13T09:39:09.967Z,28.03
2018-05-13T09:41:36.210Z,30.33
2018-05-13T09:44:02.512Z,32.80
2018-05-13T09:46:29.520Z,30.87
2018-05-13T09:48:55.754Z,31.23
2018-05-13T09:51:25.720Z,34.40
2018-05-13T09:53:52.696Z,32.47
2018-05-13T09:56:18.947Z,31.20
2018-05-13T09:58:45.184Z,33.57
2018-05-13T10:01:11.436Z,35.90
2018-05-13T10:03:38.443Z,34.60
2018-05-13T10:06:04.671Z,38.10
2018-05-13T10:08:34.937Z,36.43
2018-05-13T10:11:01.175Z,35.87
2018-05-13T10:13:27.339Z,38.13
2018-05-13T10:15:53.592Z,37.80
2018-05-13T10:18:19.807Z,36.60
2018-05-13T10:20:46.044Z,36.27
2018-05-13T10:23:12.278Z,41.30
2018-05-13T10:25:38.551Z,37.63
2018-05-13T10:28:04.800Z,39.30
2018-05-13T10:30:32.462Z,40.80
2018-05-13T10:32:58.840Z,42.23
2018-05-13T10:35:25.835Z,41.13
2018-05-13T10:37:52.813Z,41.57
2018-05-13T10:40:19.058Z,43.30
2018-05-13T10:42:45.308Z,40.07
2018-05-13T10:45:11.598Z,42.00
2018-05-13T10:47:38.607Z,43.17
2018-05-13T10:50:08.764Z,43.80
2018-05-13T10:52:35.020Z,43.90
2018-05-13T10:55:01.361Z,43.90
2018-05-13T10:57:27.623Z,43.80
2018-05-13T10:59:53.880Z,45.43
2018-05-13T11:02:20.883Z,44.60
2018-05-13T11:04:47.331Z,45.60
2018-05-13T11:07:17.928Z,46.57
2018-05-13T11:09:44.934Z,45.70
2018-05-13T11:12:11.176Z,47.20
2018-05-13T11:14:38.160Z,48.10
2018-05-13T11:17:04.435Z,48.27
2018-05-13T11:19:30.735Z,53.90
2018-05-13T11:21:57.015Z,54.10
2018-05-13T11:24:23.285Z,56.90
2018-05-13T11:26:50.282Z,56.97
2018-05-13T11:29:16.582Z,59.57
2018-05-13T11:31:43.569Z,64.90
2018-05-13T11:34:09.820Z,71.50
2018-05-13T11:36:36.080Z,72.57
2018-05-13T11:39:02.381Z,76.80
2018-05-13T11:41:28.617Z,76.77
2018-05-13T11:43:54.915Z,80.47
2018-05-13T11:46:21.212Z,78.17
2018-05-13T11:48:47.487Z,74.30
2018-05-13T11:51:13.732Z,70.17
2018-05-13T11:53:39.959Z,69.80
2018-05-13T11:56:06.197Z,68.10
2018-05-13T11:58:32.450Z,68.40
2018-05-13T12:00:58.736Z,70.77
2018-05-13T12:03:24.999Z,69.37
2018-05-13T12:05:51.278Z,71.77
2018-05-13T12:08:17.550Z,67.00
2018-05-13T12:10:43.795Z,69.70
2018-05-13T12:13:10.133Z,70.80
2018-05-13T12:15:37.211Z,69.57
2018-05-13T12:18:04.215Z,74.97
2018-05-13T12:20:35.175Z,74.47
2018-05-13T12:23:01.423Z,72.80
2018-05-13T12:25:27.688Z,69.70
2018-05-13T12:27:56.897Z,65.67
2018-05-13T12:30:23.135Z,69.07
2018-05-13T12:32:49.518Z,73.40
2018-05-13T12:35:15.760Z,75.53
2018-05-13T12:37:42.735Z,77.17
2018-05-13T12:40:09.008Z,80.83
2018-05-13T12:42:35.300Z,82.77
2018-05-13T12:45:02.989Z,85.70
2018-05-13T12:47:29.340Z,89.77
2018-05-13T12:49:55.620Z,91.60
2018-05-13T12:52:21.860Z,90.70
2018-05-13T12:54:48.120Z,90.87
2018-05-13T12:57:14.377Z,100.80
2018-05-13T12:59:41.416Z,98.50
2018-05-13T13:02:07.708Z,107.63
2018-05-13T13:04:33.986Z,103.70
2018-05-13T13:07:00.245Z,108.40
2018-05-13T13:09:26.556Z,102.87
2018-05-13T13:11:52.775Z,99.60
2018-05-13T13:14:19.056Z,97.50
2018-05-13T13:16:45.350Z,100.80
2018-05-13T13:19:12.336Z,97.63
2018-05-13T13:21:38.740Z,88.50
2018-05-13T13:24:05.275Z,85.80
2018-05-13T13:26:31.520Z,85.87
2018-05-13T13:28:57.788Z,84.27
2018-05-13T13:31:24.079Z,82.80
2018-05-13T13:33:51.096Z,78.37
2018-05-13T13:36:17.411Z,81.03
2018-05-13T13:38:43.673Z,76.07
2018-05-13T13:41:09.954Z,75.53
2018-05-13T13:43:37.013Z,79.10
2018-05-13T13:46:04.080Z,77.27
2018-05-13T13:48:30.365Z,76.27
2018-05-13T13:50:56.646Z,72.83
2018-05-13T13:53:22.937Z,73.33
2018-05-13T13:55:50.159Z,69.73
2018-05-13T13:58:16.425Z,73.80
2018-05-13T14:00:42.678Z,74.07
2018-05-13T14:03:09.700Z,70.67
2018-05-13T14:05:35.967Z,72.53
2018-05-13T14:08:02.983Z,70.23
2018-05-13T14:10:29.550Z,71.90
2018-05-13T14:12:56.048Z,74.43
2018-05-13T14:15:22.215Z,73.40
2018-05-13T14:17:48.740Z,67.97
2018-05-13T14:20:15.114Z,68.17
2018-05-13T14:22:41.247Z,62.57
2018-05-13T14:25:07.514Z,64.10
2018-05-13T14:27:33.826Z,69.10
2018-05-13T14:30:00.139Z,65.07
2018-05-13T14:32:26.436Z,65.30
2018-05-13T14:34:53.171Z,64.37
2018-05-13T14:37:19.486Z,63.87
2018-05-13T14:39:45.827Z,61.53
2018-05-13T14:42:13.328Z,62.20
2018-05-13T14:44:39.579Z,58.70
2018-05-13T14:47:05.908Z,61.33
2018-05-13T14:49:32.175Z,61.03
2018-05-13T14:51:58.460Z,63.17
2018-05-13T14:54:24.732Z,62.40
2018-05-13T14:56:51.027Z,65.53
2018-05-13T14:59:23.239Z,65.47
2018-05-13T15:01:49.499Z,67.60
2018-05-13T15:04:16.616Z,67.00
2018-05-13T15:06:42.951Z,62.03
2018-05-13T15:09:09.249Z,63.50
2018-05-13T15:11:36.196Z,60.43
2018-05-13T15:14:02.476Z,59.07
2018-05-13T15:16:32.859Z,59.40
2018-05-13T15:18:59.039Z,59.37
2018-05-13T15:21:25.264Z,59.37
2018-05-13T15:23:51.523Z,62.30
2018-05-13T15:26:17.779Z,57.37
2018-05-13T15:28:44.084Z,56.70
2018-05-13T15:31:11.216Z,48.23
2018-05-13T15:33:40.957Z,50.00
2018-05-13T15:36:08.657Z,51.00
2018-05-13T15:38:35.760Z,46.37
2018-05-13T15:41:02.053Z,45.13
2018-05-13T15:43:28.348Z,48.63
2018-05-13T15:45:54.621Z,46.07
2018-05-13T15:48:20.950Z,46.13
2018-05-13T15:50:47.309Z,46.67
2018-05-13T15:53:15.164Z,47.70
2018-05-13T15:55:41.387Z,45.20
2018-05-13T15:58:07.859Z,45.23
2018-05-13T16:00:34.200Z,46.07
2018-05-13T16:03:00.555Z,47.47
2018-05-13T16:05:26.789Z,45.70
2018-05-13T16:07:53.068Z,49.53
2018-05-13T16:10:21.256Z,49.00
2018-05-13T16:12:47.695Z,49.73
2018-05-13T16:15:14.696Z,54.17
2018-05-13T16:17:41.021Z,52.97
2018-05-13T16:20:07.200Z,52.77
2018-05-13T16:22:33.532Z,52.00
2018-05-13T16:24:59.786Z,54.87
2018-05-13T16:27:26.083Z,55.37
2018-05-13T16:29:52.351Z,56.80
2018-05-13T16:32:18.642Z,56.10
2018-05-13T16:34:50.043Z,54.57
2018-05-13T16:37:17.056Z,55.37
2018-05-13T16:39:43.397Z,55.67
2018-05-13T16:42:09.648Z,52.13
2018-05-13T16:44:35.890Z,53.07
2018-05-13T16:47:02.156Z,55.73
2018-05-13T16:49:29.127Z,52.23
2018-05-13T16:51:55.409Z,54.03
2018-05-13T16:54:21.742Z,51.70
2018-05-13T16:56:48.009Z,50.43
2018-05-13T16:59:14.270Z,52.00
2018-05-13T17:01:40.524Z,50.10
2018-05-13T17:04:06.797Z,50.83
2018-05-13T17:06:33.105Z,50.53
2018-05-13T17:08:59.428Z,51.57
2018-05-13T17:11:25.676Z,50.30
2018-05-13T17:13:52.691Z,49.83
2018-05-13T17:16:18.932Z,52.00
2018-05-13T17:18:45.579Z,51.40
2018-05-13T17:21:11.821Z,49.93
2018-05-13T17:23:38.145Z,48.97
2018-05-13T17:26:04.349Z,49.80
2018-05-13T17:28:30.720Z,49.80
2018-05-13T17:30:57.387Z,50.27
2018-05-13T17:33:23.764Z,52.40
2018-05-13T17:35:50.188Z,49.00
2018-05-13T17:38:17.031Z,51.37
2018-05-13T17:40:43.252Z,51.33
2018-05-13T17:43:12.744Z,50.10
2018-05-13T17:45:38.992Z,53.30
2018-05-13T17:48:06.008Z,50.63
2018-05-13T17:50:32.286Z,53.43
2018-05-13T17:52:59.327Z,52.77
2018-05-13T17:55:25.572Z,51.93
2018-05-13T17:57:51.825Z,52.70
2018-05-13T18:00:18.095Z,52.93
2018-05-13T18:02:44.426Z,51.20
2018-05-13T18:05:11.392Z,51.40
2018-05-13T18:07:37.679Z,51.80
2018-05-13T18:10:03.992Z,52.00
2018-05-13T18:12:30.622Z,49.67
2018-05-13T18:14:56.896Z,52.40
2018-05-13T18:17:23.136Z,51.13
2018-05-13T18:19:49.607Z,50.73
2018-05-13T18:22:15.920Z,56.17
2018-05-13T18:24:42.924Z,80.97
2018-05-13T18:27:09.191Z,96.00
2018-05-13T18:29:35.457Z,75.47
2018-05-13T18:32:01.707Z,65.03
2018-05-13T18:34:27.944Z,61.90
2018-05-13T18:36:54.203Z,58.87
2018-05-13T18:39:20.569Z,58.40
2018-05-13T18:41:46.734Z,56.60
2018-05-13T18:44:14.641Z,55.17
2018-05-13T18:46:40.959Z,53.50
2018-05-13T18:49:07.266Z,55.80
2018-05-13T18:51:33.499Z,55.60
2018-05-13T18:53:59.753Z,54.73
2018-05-13T18:56:26.021Z,53.77
2018-05-13T18:58:53.088Z,52.90
2018-05-13T19:01:19.331Z,54.77
2018-05-13T19:03:45.590Z,59.63
2018-05-13T19:06:11.971Z,54.30
2018-05-13T19:08:38.276Z,51.07
2018-05-13T19:11:05.266Z,53.37
2018-05-13T19:13:31.619Z,53.63
2018-05-13T19:15:57.869Z,55.93
2018-05-13T19:18:24.159Z,54.90
2018-05-13T19:20:50.472Z,54.70
2018-05-13T19:23:16.776Z,57.13
2018-05-13T19:25:43.070Z,53.97
2018-05-13T19:28:10.065Z,59.10
2018-05-13T19:30:36.328Z,55.50
2018-05-13T19:33:02.650Z,58.23
2018-05-13T19:35:28.920Z,56.90
2018-05-13T19:37:55.172Z,55.70
2018-05-13T19:40:21.894Z,55.87
2018-05-13T19:42:48.185Z,56.87
2018-05-13T19:45:14.408Z,52.10
2018-05-13T19:47:40.648Z,55.67
2018-05-13T19:50:06.891Z,53.80
2018-05-13T19:52:33.891Z,54.90
2018-05-13T19:55:00.145Z,53.20
2018-05-13T19:57:26.443Z,50.70
2018-05-13T19:59:53.432Z,52.20
2018-05-13T20:02:19.695Z,56.13
2018-05-13T20:04:45.944Z,51.90
2018-05-13T20:07:15.011Z,54.10
2018-05-13T20:09:41.404Z,53.10
2018-05-13T20:12:07.649Z,53.90
2018-05-13T20:14:33.959Z,53.77
2018-05-13T20:17:00.207Z,53.80
2018-05-13T20:19:27.196Z,52.87
2018-05-13T20:21:53.509Z,53.40
2018-05-13T20:24:19.755Z,51.80
2018-05-13T20:26:46.005Z,50.90
2018-05-13T20:29:13.001Z,51.87
2018-05-13T20:31:39.325Z,52.03
2018-05-13T20:34:05.699Z,54.00
2018-05-13T20:36:32.684Z,53.43
2018-05-13T20:38:58.948Z,52.90
2018-05-13T20:41:25.008Z,53.47
2018-05-13T20:43:51.084Z,55.67
2018-05-13T20:46:17.135Z,52.87
2018-05-13T20:48:43.179Z,56.17
2018-05-13T20:51:09.317Z,55.60
2018-05-13T20:53:35.296Z,53.60
2018-05-13T20:56:02.081Z,54.50
2018-05-13T20:58:28.169Z,53.47
2018-05-13T21:00:54.232Z,55.20
2018-05-13T21:03:20.304Z,53.70
2018-05-13T21:05:46.368Z,55.80
2018-05-13T21:08:13.928Z,55.23
2018-05-13T21:10:39.999Z,56.87
2018-05-13T21:13:06.840Z,60.40
2018-05-13T21:15:32.895Z,59.23
2018-05-13T21:17:59.717Z,58.67
2018-05-13T21:20:25.799Z,62.63
2018-05-13T21:22:51.936Z,63.77
2018-05-13T21:25:17.996Z,64.27
2018-05-13T21:27:44.059Z,63.90
2018-05-13T21:30:10.199Z,63.50
2018-05-13T21:32:36.180Z,66.23
2018-05-13T21:35:03.037Z,63.60
2018-05-13T21:37:29.092Z,65.60
2018-05-13T21:39:55.724Z,68.50
2018-05-13T21:42:22.528Z,66.70
2018-05-13T21:44:48.589Z,66.00
2018-05-13T21:47:14.654Z,68.23
2018-05-13T21:49:41.453Z,73.20
2018-05-13T21:52:07.551Z,67.77
2018-05-13T21:54:33.648Z,64.27
2018-05-13T21:56:59.691Z,65.00
2018-05-13T21:59:25.758Z,68.70
2018-05-13T22:01:52.557Z,72.30
2018-05-13T22:04:18.639Z,67.03
2018-05-13T22:06:45.511Z,68.77
2018-05-13T22:09:11.584Z,65.13
2018-05-13T22:11:37.756Z,66.20
2018-05-13T22:14:03.813Z,68.27
2018-05-13T22:16:29.879Z,70.87
2018-05-13T22:18:55.951Z,70.40
2018-05-13T22:21:22.019Z,67.70
2018-05-13T22:23:48.112Z,63.57
2018-05-13T22:26:16.320Z,66.07
2018-05-13T22:28:42.389Z,70.50
2018-05-13T22:31:09.172Z,72.33
2018-05-13T22:33:35.280Z,69.90
2018-05-13T22:36:02.111Z,68.67
2018-05-13T22:38:29.738Z,66.83
2018-05-13T22:40:55.794Z,68.00
2018-05-13T22:43:21.958Z,66.60
2018-05-13T22:45:48.052Z,67.97
2018-05-13T22:48:14.929Z,66.47
2018-05-13T22:50:41.016Z,66.50
2018-05-13T22:53:07.112Z,66.17
2018-05-13T22:55:33.179Z,67.90
2018-05-13T22:57:59.964Z,69.90
2018-05-13T23:00:26.030Z,72.10
2018-05-13T23:02:52.063Z,72.03
2018-05-13T23:05:18.215Z,75.43
2018-05-13T23:07:44.195Z,70.83
2018-05-13T23:10:10.239Z,71.50
2018-05-13T23:12:36.313Z,71.23
2018-05-13T23:15:02.400Z,72.50
2018-05-13T23:17:28.544Z,74.27
2018-05-13T23:19:54.647Z,74.67
2018-05-13T23:22:32.936Z,74.83
2018-05-13T23:24:59.031Z,74.47
2018-05-13T23:27:25.919Z,74.60
2018-05-13T23:29:52.073Z,75.27
2018-05-13T23:32:18.183Z,73.27
2018-05-13T23:34:44.339Z,71.40
2018-05-13T23:37:10.392Z,74.70
2018-05-13T23:39:36.475Z,73.50
2018-05-13T23:42:02.604Z,77.60
2018-05-13T23:44:28.675Z,72.93
2018-05-13T23:46:55.523Z,74.77
2018-05-13T23:49:21.572Z,75.40
2018-05-13T23:51:47.645Z,74.90
2018-05-13T23:54:13.708Z,72.97
2018-05-13T23:56:40.524Z,75.00
2018-05-13T23:59:06.574Z,76.67
